sensor_id;sensor_type;location;lat;lon;timestamp;temperature;humidity
36498;DHT22;22513;51.222;6.480;2022-10-16T00:00:33;12.10;99.90
36498;DHT22;22513;51.222;6.480;2022-10-16T00:02:58;12.10;99.90
36498;DHT22;22513;51.222;6.480;2022-10-16T00:05:24;12.00;99.90
36498;DHT22;22513;51.222;6.480;2022-10-16T00:07:49;12.00;99.90
36498;DHT22;22513;51.222;6.480;2022-10-16T00:10:15;12.10;99.90
36498;DHT22;22513;51.222;6.480;2022-10-16T00:12:41;12.10;99.90
36498;DHT22;22513;51.222;6.480;2022-10-16T00:15:07;12.10;99.90
36498;DHT22;22513;51.222;6.480;2022-10-16T00:17:32;12.10;99.90
36498;DHT22;22513;51.222;6.480;2022-10-16T00:19:58;12.10;99.90
36498;DHT22;22513;51.222;6.480;2022-10-16T00:22:24;12.10;99.90
36498;DHT22;22513;51.222;6.480;2022-10-16T00:24:49;12.10;99.90
36498;DHT22;22513;51.222;6.480;2022-10-16T00:27:15;12.00;99.90
36498;DHT22;22513;51.222;6.480;2022-10-16T00:29:42;12.10;99.90
36498;DHT22;22513;51.222;6.480;2022-10-16T00:32:07;12.10;99.90
36498;DHT22;22513;51.222;6.480;2022-10-16T00:34:33;12.10;99.90
36498;DHT22;22513;51.222;6.480;2022-10-16T00:36:59;12.10;99.90
36498;DHT22;22513;51.222;6.480;2022-10-16T00:39:24;12.10;99.90
36498;DHT22;22513;51.222;6.480;2022-10-16T00:41:50;12.10;99.90
36498;DHT22;22513;51.222;6.480;2022-10-16T00:44:49;12.10;99.90
36498;DHT22;22513;51.222;6.480;2022-10-16T00:49:51;12.00;99.90
36498;DHT22;22513;51.222;6.480;2022-10-16T00:52:19;12.00;99.90
36498;DHT22;22513;51.222;6.480;2022-10-16T00:54:46;12.00;99.90
36498;DHT22;22513;51.222;6.480;2022-10-16T00:57:12;12.00;99.90
36498;DHT22;22513;51.222;6.480;2022-10-16T00:59:40;12.00;99.90
36498;DHT22;22513;51.222;6.480;2022-10-16T01:02:10;12.00;99.90
36498;DHT22;22513;51.222;6.480;2022-10-16T01:04:45;12.00;99.90
36498;DHT22;22513;51.222;6.480;2022-10-16T01:07:46;12.00;99.90
36498;DHT22;22513;51.222;6.480;2022-10-16T01:10:39;12.00;99.90
36498;DHT22;22513;51.222;6.480;2022-10-16T01:13:06;12.00;99.90
36498;DHT22;22513;51.222;6.480;2022-10-16T01:26:06;11.90;99.90
36498;DHT22;22513;51.222;6.480;2022-10-16T01:28:45;11.90;99.90
36498;DHT22;22513;51.222;6.480;2022-10-16T01:31:15;11.90;99.90
36498;DHT22;22513;51.222;6.480;2022-10-16T01:33:51;11.90;99.90
36498;DHT22;22513;51.222;6.480;2022-10-16T01:36:25;11.80;99.90
36498;DHT22;22513;51.222;6.480;2022-10-16T01:38:52;11.80;99.90
36498;DHT22;22513;51.222;6.480;2022-10-16T01:41:26;11.70;99.90
36498;DHT22;22513;51.222;6.480;2022-10-16T01:44:10;11.70;99.90
36498;DHT22;22513;51.222;6.480;2022-10-16T01:46:41;11.70;99.90
36498;DHT22;22513;51.222;6.480;2022-10-16T01:49:09;11.70;99.90
36498;DHT22;22513;51.222;6.480;2022-10-16T01:51:37;11.70;99.90
36498;DHT22;22513;51.222;6.480;2022-10-16T01:54:05;11.70;99.90
36498;DHT22;22513;51.222;6.480;2022-10-16T01:56:34;11.70;99.90
36498;DHT22;22513;51.222;6.480;2022-10-16T01:59:10;11.80;99.90
36498;DHT22;22513;51.222;6.480;2022-10-16T02:01:40;11.80;99.90
36498;DHT22;22513;51.222;6.480;2022-10-16T02:04:17;11.70;99.90
36498;DHT22;22513;51.222;6.480;2022-10-16T02:06:44;11.70;99.90
36498;DHT22;22513;51.222;6.480;2022-10-16T02:09:09;11.70;99.90
36498;DHT22;22513;51.222;6.480;2022-10-16T02:11:35;11.70;99.90
36498;DHT22;22513;51.222;6.480;2022-10-16T02:14:06;11.70;99.90
36498;DHT22;22513;51.222;6.480;2022-10-16T02:16:37;11.70;99.90
36498;DHT22;22513;51.222;6.480;2022-10-16T02:19:04;11.70;99.90
36498;DHT22;22513;51.222;6.480;2022-10-16T02:21:35;11.70;99.90
36498;DHT22;22513;51.222;6.480;2022-10-16T02:29:49;11.90;99.90
36498;DHT22;22513;51.222;6.480;2022-10-16T02:32:21;12.00;99.90
36498;DHT22;22513;51.222;6.480;2022-10-16T02:34:49;12.00;99.90
36498;DHT22;22513;51.222;6.480;2022-10-16T02:37:16;12.00;99.90
36498;DHT22;22513;51.222;6.480;2022-10-16T02:39:43;12.10;99.90
36498;DHT22;22513;51.222;6.480;2022-10-16T02:42:13;12.10;99.90
36498;DHT22;22513;51.222;6.480;2022-10-16T02:44:39;12.20;99.90
36498;DHT22;22513;51.222;6.480;2022-10-16T02:47:05;12.20;99.90
36498;DHT22;22513;51.222;6.480;2022-10-16T02:49:31;12.20;99.90
36498;DHT22;22513;51.222;6.480;2022-10-16T02:51:56;12.30;99.90
36498;DHT22;22513;51.222;6.480;2022-10-16T02:54:22;12.30;99.90
36498;DHT22;22513;51.222;6.480;2022-10-16T02:56:47;12.30;99.90
36498;DHT22;22513;51.222;6.480;2022-10-16T02:59:13;12.30;99.90
36498;DHT22;22513;51.222;6.480;2022-10-16T03:01:39;12.30;99.90
36498;DHT22;22513;51.222;6.480;2022-10-16T03:04:04;12.30;99.90
36498;DHT22;22513;51.222;6.480;2022-10-16T03:06:30;12.20;99.90
36498;DHT22;22513;51.222;6.480;2022-10-16T03:08:55;12.10;99.90
36498;DHT22;22513;51.222;6.480;2022-10-16T03:11:21;12.20;99.90
36498;DHT22;22513;51.222;6.480;2022-10-16T03:13:47;12.20;99.90
36498;DHT22;22513;51.222;6.480;2022-10-16T03:16:12;12.20;99.90
36498;DHT22;22513;51.222;6.480;2022-10-16T03:18:38;12.20;99.90
36498;DHT22;22513;51.222;6.480;2022-10-16T03:21:03;12.20;99.90
36498;DHT22;22513;51.222;6.480;2022-10-16T03:23:29;12.10;99.90
36498;DHT22;22513;51.222;6.480;2022-10-16T03:25:55;12.10;99.90
36498;DHT22;22513;51.222;6.480;2022-10-16T03:28:21;12.10;99.90
36498;DHT22;22513;51.222;6.480;2022-10-16T03:30:46;12.10;99.90
36498;DHT22;22513;51.222;6.480;2022-10-16T03:33:12;12.10;99.90
36498;DHT22;22513;51.222;6.480;2022-10-16T03:35:37;12.10;99.90
36498;DHT22;22513;51.222;6.480;2022-10-16T03:38:03;12.00;99.90
36498;DHT22;22513;51.222;6.480;2022-10-16T03:40:28;12.00;99.90
36498;DHT22;22513;51.222;6.480;2022-10-16T03:42:55;12.00;99.90
36498;DHT22;22513;51.222;6.480;2022-10-16T03:45:23;12.00;99.90
36498;DHT22;22513;51.222;6.480;2022-10-16T03:47:48;11.90;99.90
36498;DHT22;22513;51.222;6.480;2022-10-16T03:50:14;11.80;99.90
36498;DHT22;22513;51.222;6.480;2022-10-16T03:52:40;11.70;99.90
36498;DHT22;22513;51.222;6.480;2022-10-16T03:55:06;11.70;99.90
36498;DHT22;22513;51.222;6.480;2022-10-16T03:57:32;11.60;99.90
36498;DHT22;22513;51.222;6.480;2022-10-16T03:59:57;11.60;99.90
36498;DHT22;22513;51.222;6.480;2022-10-16T04:02:23;11.50;99.90
36498;DHT22;22513;51.222;6.480;2022-10-16T04:04:49;11.50;99.90
36498;DHT22;22513;51.222;6.480;2022-10-16T04:07:14;11.40;99.90
36498;DHT22;22513;51.222;6.480;2022-10-16T04:09:40;11.40;99.90
36498;DHT22;22513;51.222;6.480;2022-10-16T04:12:05;11.40;99.90
36498;DHT22;22513;51.222;6.480;2022-10-16T04:14:31;11.30;99.90
36498;DHT22;22513;51.222;6.480;2022-10-16T04:16:57;11.30;99.90
36498;DHT22;22513;51.222;6.480;2022-10-16T04:19:22;11.30;99.90
36498;DHT22;22513;51.222;6.480;2022-10-16T04:21:48;11.30;99.90
36498;DHT22;22513;51.222;6.480;2022-10-16T04:24:13;11.30;99.90
36498;DHT22;22513;51.222;6.480;2022-10-16T04:26:39;11.30;99.90
36498;DHT22;22513;51.222;6.480;2022-10-16T04:29:04;11.30;99.90
36498;DHT22;22513;51.222;6.480;2022-10-16T04:31:31;11.20;99.90
36498;DHT22;22513;51.222;6.480;2022-10-16T04:33:57;11.20;99.90
36498;DHT22;22513;51.222;6.480;2022-10-16T04:36:22;11.10;99.90
36498;DHT22;22513;51.222;6.480;2022-10-16T04:38:48;11.10;99.90
36498;DHT22;22513;51.222;6.480;2022-10-16T04:41:13;11.10;99.90
36498;DHT22;22513;51.222;6.480;2022-10-16T04:43:39;11.10;99.90
36498;DHT22;22513;51.222;6.480;2022-10-16T04:46:05;11.10;99.90
36498;DHT22;22513;51.222;6.480;2022-10-16T04:48:31;11.10;99.90
36498;DHT22;22513;51.222;6.480;2022-10-16T04:50:56;11.00;99.90
36498;DHT22;22513;51.222;6.480;2022-10-16T04:53:22;11.00;99.90
36498;DHT22;22513;51.222;6.480;2022-10-16T04:55:49;11.00;99.90
36498;DHT22;22513;51.222;6.480;2022-10-16T04:58:15;11.00;99.90
36498;DHT22;22513;51.222;6.480;2022-10-16T05:00:40;11.00;99.90
36498;DHT22;22513;51.222;6.480;2022-10-16T05:03:06;11.00;99.90
36498;DHT22;22513;51.222;6.480;2022-10-16T05:05:34;11.00;99.90
36498;DHT22;22513;51.222;6.480;2022-10-16T05:08:00;11.00;99.90
36498;DHT22;22513;51.222;6.480;2022-10-16T05:10:25;11.00;99.90
36498;DHT22;22513;51.222;6.480;2022-10-16T05:12:51;11.00;99.90
36498;DHT22;22513;51.222;6.480;2022-10-16T05:15:17;11.00;99.90
36498;DHT22;22513;51.222;6.480;2022-10-16T05:17:43;11.10;99.90
36498;DHT22;22513;51.222;6.480;2022-10-16T05:20:09;11.00;99.90
36498;DHT22;22513;51.222;6.480;2022-10-16T05:22:35;11.00;99.90
36498;DHT22;22513;51.222;6.480;2022-10-16T05:25:00;11.00;99.90
36498;DHT22;22513;51.222;6.480;2022-10-16T05:27:26;11.00;99.90
36498;DHT22;22513;51.222;6.480;2022-10-16T05:29:52;11.00;99.90
36498;DHT22;22513;51.222;6.480;2022-10-16T05:32:18;11.00;99.90
36498;DHT22;22513;51.222;6.480;2022-10-16T05:34:44;11.10;99.90
36498;DHT22;22513;51.222;6.480;2022-10-16T05:37:10;11.10;99.90
36498;DHT22;22513;51.222;6.480;2022-10-16T05:39:37;11.10;99.90
36498;DHT22;22513;51.222;6.480;2022-10-16T05:42:03;11.10;99.90
36498;DHT22;22513;51.222;6.480;2022-10-16T05:44:29;11.10;99.90
36498;DHT22;22513;51.222;6.480;2022-10-16T05:46:54;11.00;99.90
36498;DHT22;22513;51.222;6.480;2022-10-16T05:49:20;11.00;99.90
36498;DHT22;22513;51.222;6.480;2022-10-16T05:51:45;11.00;99.90
36498;DHT22;22513;51.222;6.480;2022-10-16T05:54:11;11.10;99.90
36498;DHT22;22513;51.222;6.480;2022-10-16T05:56:37;11.00;99.90
36498;DHT22;22513;51.222;6.480;2022-10-16T05:59:05;11.00;99.90
36498;DHT22;22513;51.222;6.480;2022-10-16T06:01:31;11.00;99.90
36498;DHT22;22513;51.222;6.480;2022-10-16T06:03:57;11.00;99.90
36498;DHT22;22513;51.222;6.480;2022-10-16T06:06:26;11.00;99.90
36498;DHT22;22513;51.222;6.480;2022-10-16T06:08:53;10.90;99.90
36498;DHT22;22513;51.222;6.480;2022-10-16T06:11:24;11.00;99.90
36498;DHT22;22513;51.222;6.480;2022-10-16T06:14:00;11.00;99.90
36498;DHT22;22513;51.222;6.480;2022-10-16T06:16:28;10.90;99.90
36498;DHT22;22513;51.222;6.480;2022-10-16T06:18:55;11.00;99.90
36498;DHT22;22513;51.222;6.480;2022-10-16T06:21:26;11.00;99.90
36498;DHT22;22513;51.222;6.480;2022-10-16T06:23:53;11.00;99.90
36498;DHT22;22513;51.222;6.480;2022-10-16T06:26:21;11.10;99.90
36498;DHT22;22513;51.222;6.480;2022-10-16T06:28:47;11.10;99.90
36498;DHT22;22513;51.222;6.480;2022-10-16T06:31:14;11.10;99.90
36498;DHT22;22513;51.222;6.480;2022-10-16T06:33:40;11.20;99.90
36498;DHT22;22513;51.222;6.480;2022-10-16T06:36:07;11.30;99.90
36498;DHT22;22513;51.222;6.480;2022-10-16T06:38:33;11.30;99.90
36498;DHT22;22513;51.222;6.480;2022-10-16T06:40:59;11.40;99.90
36498;DHT22;22513;51.222;6.480;2022-10-16T06:43:25;11.40;99.90
36498;DHT22;22513;51.222;6.480;2022-10-16T06:45:55;11.50;99.90
36498;DHT22;22513;51.222;6.480;2022-10-16T06:48:23;11.60;99.90
36498;DHT22;22513;51.222;6.480;2022-10-16T06:53:25;11.70;99.90
36498;DHT22;22513;51.222;6.480;2022-10-16T06:55:51;11.80;99.90
36498;DHT22;22513;51.222;6.480;2022-10-16T06:58:17;12.10;99.90
36498;DHT22;22513;51.222;6.480;2022-10-16T07:00:42;12.10;99.90
36498;DHT22;22513;51.222;6.480;2022-10-16T07:03:08;12.10;99.90
36498;DHT22;22513;51.222;6.480;2022-10-16T07:05:38;12.10;99.90
36498;DHT22;22513;51.222;6.480;2022-10-16T07:08:04;12.10;99.90
36498;DHT22;22513;51.222;6.480;2022-10-16T07:10:31;12.10;99.90
36498;DHT22;22513;51.222;6.480;2022-10-16T07:12:56;12.10;99.90
36498;DHT22;22513;51.222;6.480;2022-10-16T07:15:22;12.10;99.90
36498;DHT22;22513;51.222;6.480;2022-10-16T07:17:48;12.00;99.90
36498;DHT22;22513;51.222;6.480;2022-10-16T07:20:13;12.00;99.90
36498;DHT22;22513;51.222;6.480;2022-10-16T07:22:39;12.00;99.90
36498;DHT22;22513;51.222;6.480;2022-10-16T07:25:05;12.00;99.90
36498;DHT22;22513;51.222;6.480;2022-10-16T07:27:31;12.20;99.90
36498;DHT22;22513;51.222;6.480;2022-10-16T07:29:56;12.30;99.90
36498;DHT22;22513;51.222;6.480;2022-10-16T07:32:22;12.70;99.90
36498;DHT22;22513;51.222;6.480;2022-10-16T07:34:47;13.20;99.90
36498;DHT22;22513;51.222;6.480;2022-10-16T07:37:13;13.60;99.90
36498;DHT22;22513;51.222;6.480;2022-10-16T07:39:39;13.80;99.90
36498;DHT22;22513;51.222;6.480;2022-10-16T07:42:04;13.80;99.90
36498;DHT22;22513;51.222;6.480;2022-10-16T07:44:30;13.80;99.90
36498;DHT22;22513;51.222;6.480;2022-10-16T07:46:55;13.70;99.90
36498;DHT22;22513;51.222;6.480;2022-10-16T07:49:21;13.60;99.90
36498;DHT22;22513;51.222;6.480;2022-10-16T07:51:46;13.50;99.90
36498;DHT22;22513;51.222;6.480;2022-10-16T07:54:12;13.50;99.90
36498;DHT22;22513;51.222;6.480;2022-10-16T07:56:38;13.50;99.90
36498;DHT22;22513;51.222;6.480;2022-10-16T07:59:03;13.50;99.90
36498;DHT22;22513;51.222;6.480;2022-10-16T08:01:29;13.50;99.90
36498;DHT22;22513;51.222;6.480;2022-10-16T08:03:54;13.50;99.90
36498;DHT22;22513;51.222;6.480;2022-10-16T08:06:21;13.60;99.90
36498;DHT22;22513;51.222;6.480;2022-10-16T08:08:47;13.60;99.90
36498;DHT22;22513;51.222;6.480;2022-10-16T08:11:13;13.70;99.90
36498;DHT22;22513;51.222;6.480;2022-10-16T08:13:40;13.70;99.90
36498;DHT22;22513;51.222;6.480;2022-10-16T08:16:06;13.80;99.90
36498;DHT22;22513;51.222;6.480;2022-10-16T08:18:34;13.90;99.90
36498;DHT22;22513;51.222;6.480;2022-10-16T08:21:01;13.90;99.90
36498;DHT22;22513;51.222;6.480;2022-10-16T08:23:27;14.00;99.90
36498;DHT22;22513;51.222;6.480;2022-10-16T08:25:54;14.10;99.90
36498;DHT22;22513;51.222;6.480;2022-10-16T08:28:20;14.20;99.90
36498;DHT22;22513;51.222;6.480;2022-10-16T08:30:46;14.30;99.90
36498;DHT22;22513;51.222;6.480;2022-10-16T08:33:11;14.40;99.90
36498;DHT22;22513;51.222;6.480;2022-10-16T08:35:37;14.40;99.90
36498;DHT22;22513;51.222;6.480;2022-10-16T08:38:03;14.50;99.90
36498;DHT22;22513;51.222;6.480;2022-10-16T08:40:31;14.60;99.90
36498;DHT22;22513;51.222;6.480;2022-10-16T08:48:45;14.90;99.90
36498;DHT22;22513;51.222;6.480;2022-10-16T08:53:48;15.00;99.90
36498;DHT22;22513;51.222;6.480;2022-10-16T08:56:14;15.10;99.90
36498;DHT22;22513;51.222;6.480;2022-10-16T08:58:40;15.20;99.90
36498;DHT22;22513;51.222;6.480;2022-10-16T09:01:13;15.20;99.90
36498;DHT22;22513;51.222;6.480;2022-10-16T09:14:56;15.70;99.90
36498;DHT22;22513;51.222;6.480;2022-10-16T09:17:41;15.80;99.90
36498;DHT22;22513;51.222;6.480;2022-10-16T09:20:32;15.90;99.90
36498;DHT22;22513;51.222;6.480;2022-10-16T09:23:19;16.00;99.90
36498;DHT22;22513;51.222;6.480;2022-10-16T09:25:47;16.10;99.90
36498;DHT22;22513;51.222;6.480;2022-10-16T09:28:14;16.10;99.90
36498;DHT22;22513;51.222;6.480;2022-10-16T09:30:40;16.20;99.90
36498;DHT22;22513;51.222;6.480;2022-10-16T09:33:06;16.30;99.90
36498;DHT22;22513;51.222;6.480;2022-10-16T09:35:45;16.30;99.90
36498;DHT22;22513;51.222;6.480;2022-10-16T09:38:29;16.40;99.90
36498;DHT22;22513;51.222;6.480;2022-10-16T09:41:03;16.40;99.90
36498;DHT22;22513;51.222;6.480;2022-10-16T09:46:06;16.50;99.90
36498;DHT22;22513;51.222;6.480;2022-10-16T09:51:04;16.70;99.90
36498;DHT22;22513;51.222;6.480;2022-10-16T09:53:46;16.70;99.90
36498;DHT22;22513;51.222;6.480;2022-10-16T09:56:22;16.80;99.90
36498;DHT22;22513;51.222;6.480;2022-10-16T09:58:53;16.80;99.90
36498;DHT22;22513;51.222;6.480;2022-10-16T10:01:19;16.90;99.90
36498;DHT22;22513;51.222;6.480;2022-10-16T10:03:46;16.90;99.90
36498;DHT22;22513;51.222;6.480;2022-10-16T10:06:25;17.00;99.90
36498;DHT22;22513;51.222;6.480;2022-10-16T10:11:43;17.10;99.90
36498;DHT22;22513;51.222;6.480;2022-10-16T10:16:42;17.20;99.90
36498;DHT22;22513;51.222;6.480;2022-10-16T10:19:19;17.30;99.90
36498;DHT22;22513;51.222;6.480;2022-10-16T10:21:46;17.40;99.90
36498;DHT22;22513;51.222;6.480;2022-10-16T10:24:14;17.50;99.90
36498;DHT22;22513;51.222;6.480;2022-10-16T10:26:49;17.50;99.90
36498;DHT22;22513;51.222;6.480;2022-10-16T10:29:26;17.60;99.90
36498;DHT22;22513;51.222;6.480;2022-10-16T10:42:34;18.10;99.90
36498;DHT22;22513;51.222;6.480;2022-10-16T10:50:43;18.30;99.90
36498;DHT22;22513;51.222;6.480;2022-10-16T11:01:13;18.40;99.90
36498;DHT22;22513;51.222;6.480;2022-10-16T11:03:46;18.40;99.90
36498;DHT22;22513;51.222;6.480;2022-10-16T11:06:18;18.50;99.90
36498;DHT22;22513;51.222;6.480;2022-10-16T11:09:19;18.40;99.90
36498;DHT22;22513;51.222;6.480;2022-10-16T11:11:55;18.40;99.90
36498;DHT22;22513;51.222;6.480;2022-10-16T11:14:35;18.40;99.90
36498;DHT22;22513;51.222;6.480;2022-10-16T11:17:10;18.30;99.90
36498;DHT22;22513;51.222;6.480;2022-10-16T11:19:45;18.20;99.90
36498;DHT22;22513;51.222;6.480;2022-10-16T11:27:38;18.20;99.90
36498;DHT22;22513;51.222;6.480;2022-10-16T11:35:59;18.30;99.90
36498;DHT22;22513;51.222;6.480;2022-10-16T11:43:39;18.50;99.90
36498;DHT22;22513;51.222;6.480;2022-10-16T11:46:15;18.50;99.90
36498;DHT22;22513;51.222;6.480;2022-10-16T11:49:16;18.60;99.90
36498;DHT22;22513;51.222;6.480;2022-10-16T11:51:50;18.60;99.90
36498;DHT22;22513;51.222;6.480;2022-10-16T11:57:08;18.70;99.90
36498;DHT22;22513;51.222;6.480;2022-10-16T12:02:56;18.80;99.90
36498;DHT22;22513;51.222;6.480;2022-10-16T12:05:33;18.90;99.90
36498;DHT22;22513;51.222;6.480;2022-10-16T12:08:14;18.90;99.90
36498;DHT22;22513;51.222;6.480;2022-10-16T12:10:42;19.00;99.90
36498;DHT22;22513;51.222;6.480;2022-10-16T12:13:36;19.20;99.90
36498;DHT22;22513;51.222;6.480;2022-10-16T12:18:32;19.50;99.90
36498;DHT22;22513;51.222;6.480;2022-10-16T12:20:59;19.60;99.90
36498;DHT22;22513;51.222;6.480;2022-10-16T12:23:30;19.80;99.90
36498;DHT22;22513;51.222;6.480;2022-10-16T12:25:59;20.00;99.90
36498;DHT22;22513;51.222;6.480;2022-10-16T12:28:32;20.20;99.90
36498;DHT22;22513;51.222;6.480;2022-10-16T12:31:04;20.30;99.90
36498;DHT22;22513;51.222;6.480;2022-10-16T12:33:41;20.40;99.90
36498;DHT22;22513;51.222;6.480;2022-10-16T12:36:14;20.40;99.90
36498;DHT22;22513;51.222;6.480;2022-10-16T12:41:33;20.50;99.90
36498;DHT22;22513;51.222;6.480;2022-10-16T12:44:00;20.60;99.90
36498;DHT22;22513;51.222;6.480;2022-10-16T12:51:40;20.60;99.90
36498;DHT22;22513;51.222;6.480;2022-10-16T12:54:18;20.50;99.90
36498;DHT22;22513;51.222;6.480;2022-10-16T13:13:43;20.30;99.90
36498;DHT22;22513;51.222;6.480;2022-10-16T13:27:34;20.60;99.90
36498;DHT22;22513;51.222;6.480;2022-10-16T13:30:19;20.70;99.90
36498;DHT22;22513;51.222;6.480;2022-10-16T13:32:48;20.70;99.90
36498;DHT22;22513;51.222;6.480;2022-10-16T13:35:26;20.80;99.90
36498;DHT22;22513;51.222;6.480;2022-10-16T13:38:03;21.00;99.90
36498;DHT22;22513;51.222;6.480;2022-10-16T13:40:29;21.10;99.90
36498;DHT22;22513;51.222;6.480;2022-10-16T13:42:55;21.10;99.90
36498;DHT22;22513;51.222;6.480;2022-10-16T13:45:24;21.20;99.90
36498;DHT22;22513;51.222;6.480;2022-10-16T13:48:04;21.30;99.90
36498;DHT22;22513;51.222;6.480;2022-10-16T13:50:30;21.30;99.90
36498;DHT22;22513;51.222;6.480;2022-10-16T13:53:13;21.40;99.90
36498;DHT22;22513;51.222;6.480;2022-10-16T13:55:39;21.50;99.90
36498;DHT22;22513;51.222;6.480;2022-10-16T13:58:08;21.40;99.90
36498;DHT22;22513;51.222;6.480;2022-10-16T14:00:37;21.40;99.90
36498;DHT22;22513;51.222;6.480;2022-10-16T14:03:13;21.30;99.90
36498;DHT22;22513;51.222;6.480;2022-10-16T14:05:47;21.20;99.90
36498;DHT22;22513;51.222;6.480;2022-10-16T14:08:13;21.00;99.90
36498;DHT22;22513;51.222;6.480;2022-10-16T14:10:39;20.90;99.90
36498;DHT22;22513;51.222;6.480;2022-10-16T14:13:06;20.80;99.90
36498;DHT22;22513;51.222;6.480;2022-10-16T14:15:34;20.70;99.90
36498;DHT22;22513;51.222;6.480;2022-10-16T14:18:01;20.70;99.90
36498;DHT22;22513;51.222;6.480;2022-10-16T14:20:30;20.70;99.90
36498;DHT22;22513;51.222;6.480;2022-10-16T14:23:02;20.80;99.90
36498;DHT22;22513;51.222;6.480;2022-10-16T14:25:31;20.80;99.90
36498;DHT22;22513;51.222;6.480;2022-10-16T14:30:23;20.80;99.90
36498;DHT22;22513;51.222;6.480;2022-10-16T14:35:35;20.50;99.90
36498;DHT22;22513;51.222;6.480;2022-10-16T14:38:03;20.40;99.90
36498;DHT22;22513;51.222;6.480;2022-10-16T14:40:34;20.30;99.90
36498;DHT22;22513;51.222;6.480;2022-10-16T14:43:01;20.30;99.90
36498;DHT22;22513;51.222;6.480;2022-10-16T14:45:33;20.30;99.90
36498;DHT22;22513;51.222;6.480;2022-10-16T14:48:06;20.30;99.90
36498;DHT22;22513;51.222;6.480;2022-10-16T14:50:40;20.20;99.90
36498;DHT22;22513;51.222;6.480;2022-10-16T14:53:11;20.10;99.90
36498;DHT22;22513;51.222;6.480;2022-10-16T14:55:38;20.00;99.90
36498;DHT22;22513;51.222;6.480;2022-10-16T14:58:04;19.90;99.90
36498;DHT22;22513;51.222;6.480;2022-10-16T15:00:30;19.90;99.90
36498;DHT22;22513;51.222;6.480;2022-10-16T15:02:55;19.80;99.90
36498;DHT22;22513;51.222;6.480;2022-10-16T15:05:22;19.80;99.90
36498;DHT22;22513;51.222;6.480;2022-10-16T15:07:49;19.70;99.90
36498;DHT22;22513;51.222;6.480;2022-10-16T15:10:17;19.60;99.90
36498;DHT22;22513;51.222;6.480;2022-10-16T15:12:43;19.50;99.90
36498;DHT22;22513;51.222;6.480;2022-10-16T15:17:56;19.20;99.90
36498;DHT22;22513;51.222;6.480;2022-10-16T15:20:23;19.10;99.90
36498;DHT22;22513;51.222;6.480;2022-10-16T15:22:49;18.90;99.90
36498;DHT22;22513;51.222;6.480;2022-10-16T15:27:46;18.50;99.90
36498;DHT22;22513;51.222;6.480;2022-10-16T15:30:11;18.40;99.90
36498;DHT22;22513;51.222;6.480;2022-10-16T15:32:37;18.40;99.90
36498;DHT22;22513;51.222;6.480;2022-10-16T15:35:03;18.40;99.90
36498;DHT22;22513;51.222;6.480;2022-10-16T15:37:28;18.40;99.90
36498;DHT22;22513;51.222;6.480;2022-10-16T15:39:54;18.40;99.90
36498;DHT22;22513;51.222;6.480;2022-10-16T15:42:20;18.40;99.90
36498;DHT22;22513;51.222;6.480;2022-10-16T15:44:45;18.30;99.90
36498;DHT22;22513;51.222;6.480;2022-10-16T15:47:11;18.30;99.90
36498;DHT22;22513;51.222;6.480;2022-10-16T15:49:36;18.20;99.90
36498;DHT22;22513;51.222;6.480;2022-10-16T15:52:03;18.20;99.90
36498;DHT22;22513;51.222;6.480;2022-10-16T15:54:28;18.10;99.90
36498;DHT22;22513;51.222;6.480;2022-10-16T15:56:54;18.10;99.90
36498;DHT22;22513;51.222;6.480;2022-10-16T15:59:20;18.00;99.90
36498;DHT22;22513;51.222;6.480;2022-10-16T16:01:45;17.80;99.90
36498;DHT22;22513;51.222;6.480;2022-10-16T16:04:11;17.70;99.90
36498;DHT22;22513;51.222;6.480;2022-10-16T16:06:37;17.70;99.90
36498;DHT22;22513;51.222;6.480;2022-10-16T16:09:04;17.60;99.90
36498;DHT22;22513;51.222;6.480;2022-10-16T16:11:30;17.50;99.90
36498;DHT22;22513;51.222;6.480;2022-10-16T16:13:57;17.50;99.90
36498;DHT22;22513;51.222;6.480;2022-10-16T16:16:23;17.40;99.90
36498;DHT22;22513;51.222;6.480;2022-10-16T16:18:52;17.40;99.90
36498;DHT22;22513;51.222;6.480;2022-10-16T16:21:18;17.30;99.90
36498;DHT22;22513;51.222;6.480;2022-10-16T16:23:43;17.30;99.90
36498;DHT22;22513;51.222;6.480;2022-10-16T16:26:16;17.20;99.90
36498;DHT22;22513;51.222;6.480;2022-10-16T16:28:49;17.10;99.90
36498;DHT22;22513;51.222;6.480;2022-10-16T16:31:14;17.10;99.90
36498;DHT22;22513;51.222;6.480;2022-10-16T16:33:40;17.00;99.90
36498;DHT22;22513;51.222;6.480;2022-10-16T16:36:06;17.00;99.90
36498;DHT22;22513;51.222;6.480;2022-10-16T16:38:33;16.90;99.90
36498;DHT22;22513;51.222;6.480;2022-10-16T16:40:59;16.90;99.90
36498;DHT22;22513;51.222;6.480;2022-10-16T16:43:25;16.80;99.90
36498;DHT22;22513;51.222;6.480;2022-10-16T16:45:52;16.80;99.90
36498;DHT22;22513;51.222;6.480;2022-10-16T16:48:18;16.70;99.90
36498;DHT22;22513;51.222;6.480;2022-10-16T16:50:43;16.70;99.90
36498;DHT22;22513;51.222;6.480;2022-10-16T16:53:09;16.60;99.90
36498;DHT22;22513;51.222;6.480;2022-10-16T16:55:35;16.50;99.90
36498;DHT22;22513;51.222;6.480;2022-10-16T16:58:00;16.40;99.90
36498;DHT22;22513;51.222;6.480;2022-10-16T17:00:26;16.40;99.90
36498;DHT22;22513;51.222;6.480;2022-10-16T17:02:51;16.30;99.90
36498;DHT22;22513;51.222;6.480;2022-10-16T17:05:18;16.30;99.90
36498;DHT22;22513;51.222;6.480;2022-10-16T17:07:43;16.30;99.90
36498;DHT22;22513;51.222;6.480;2022-10-16T17:10:09;16.30;99.90
36498;DHT22;22513;51.222;6.480;2022-10-16T17:12:35;16.30;99.90
36498;DHT22;22513;51.222;6.480;2022-10-16T17:15:01;16.30;99.90
36498;DHT22;22513;51.222;6.480;2022-10-16T17:17:27;16.30;99.90
36498;DHT22;22513;51.222;6.480;2022-10-16T17:19:52;16.20;99.90
36498;DHT22;22513;51.222;6.480;2022-10-16T17:22:19;16.20;99.90
36498;DHT22;22513;51.222;6.480;2022-10-16T17:24:47;16.10;99.90
36498;DHT22;22513;51.222;6.480;2022-10-16T17:27:15;16.10;99.90
36498;DHT22;22513;51.222;6.480;2022-10-16T17:29:41;16.00;99.90
36498;DHT22;22513;51.222;6.480;2022-10-16T17:32:06;16.00;99.90
36498;DHT22;22513;51.222;6.480;2022-10-16T17:34:32;16.00;99.90
36498;DHT22;22513;51.222;6.480;2022-10-16T17:36:57;16.00;99.90
36498;DHT22;22513;51.222;6.480;2022-10-16T17:39:23;15.90;99.90
36498;DHT22;22513;51.222;6.480;2022-10-16T17:41:49;15.90;99.90
36498;DHT22;22513;51.222;6.480;2022-10-16T17:44:15;15.90;99.90
36498;DHT22;22513;51.222;6.480;2022-10-16T17:46:46;15.90;99.90
36498;DHT22;22513;51.222;6.480;2022-10-16T17:49:12;15.90;99.90
36498;DHT22;22513;51.222;6.480;2022-10-16T17:51:37;15.90;99.90
36498;DHT22;22513;51.222;6.480;2022-10-16T17:54:03;16.00;99.90
36498;DHT22;22513;51.222;6.480;2022-10-16T17:56:30;16.00;99.90
36498;DHT22;22513;51.222;6.480;2022-10-16T17:58:57;16.00;99.90
36498;DHT22;22513;51.222;6.480;2022-10-16T18:01:34;16.00;99.90
36498;DHT22;22513;51.222;6.480;2022-10-16T18:04:13;16.00;99.90